createdAt,value
2019-03-03T00:01:59.254Z,99956.17
2019-03-03T00:04:33.463Z,99951.90
2019-03-03T00:07:04.534Z,99944.94
2019-03-03T00:09:37.108Z,99934.48
2019-03-03T00:12:09.783Z,99928.00
2019-03-03T00:14:39.610Z,99928.00
2019-03-03T00:17:09.841Z,99929.30
2019-03-03T00:19:39.947Z,99909.74
2019-03-03T00:22:10.349Z,99909.74
2019-03-03T00:24:40.920Z,99755.23
2019-03-03T00:27:10.948Z,99899.31
2019-03-03T00:29:41.271Z,99899.31
2019-03-03T00:32:11.480Z,99891.05
2019-03-03T00:34:41.916Z,99891.05
2019-03-03T00:37:19.472Z,99887.54
2019-03-03T00:39:54.156Z,99877.13
2019-03-03T00:42:57.919Z,99862.34
2019-03-03T00:45:52.770Z,99862.34
2019-03-03T00:48:45.519Z,99859.73
2019-03-03T00:51:25.398Z,99853.66
2019-03-03T00:54:32.369Z,99859.72
2019-03-03T00:57:24.254Z,99859.72
2019-03-03T01:00:17.937Z,99831.90
2019-03-03T01:03:01.574Z,99839.70
2019-03-03T01:06:02.087Z,99831.03
2019-03-03T01:08:57.286Z,99830.63
2019-03-03T01:11:52.165Z,99822.36
2019-03-03T01:14:53.390Z,99816.69
2019-03-03T01:17:34.728Z,99816.69
2019-03-03T01:20:12.718Z,99812.77
2019-03-03T01:23:03.245Z,99812.77
2019-03-03T01:25:33.521Z,99808.00
2019-03-03T01:28:03.362Z,99780.61
2019-03-03T01:30:33.435Z,99789.75
2019-03-03T01:33:03.769Z,99789.75
2019-03-03T01:35:33.927Z,99779.75
2019-03-03T01:38:03.768Z,99779.75
2019-03-03T01:40:34.590Z,99759.75
2019-03-03T01:43:04.329Z,99762.36
2019-03-03T01:45:34.146Z,99762.36
2019-03-03T01:48:04.171Z,99754.55
2019-03-03T01:50:34.459Z,99754.55
2019-03-03T01:53:04.076Z,99742.36
2019-03-03T01:55:34.367Z,99744.55
2019-03-03T01:58:04.514Z,99744.55
2019-03-03T02:00:34.412Z,99738.45
2019-03-03T02:03:05.258Z,99736.29
2019-03-03T02:05:35.275Z,99724.11
2019-03-03T02:08:05.435Z,99717.14
2019-03-03T02:10:35.609Z,99694.55
2019-03-03T02:13:05.352Z,99694.55
2019-03-03T02:15:35.280Z,99691.05
2019-03-03T02:18:05.148Z,99693.22
2019-03-03T02:20:34.918Z,99682.78
2019-03-03T02:23:05.956Z,99676.69
2019-03-03T02:25:36.423Z,99676.69
2019-03-03T02:28:06.198Z,99676.25
2019-03-03T02:30:36.188Z,99673.66
2019-03-03T02:33:05.892Z,99667.56
2019-03-03T02:35:35.850Z,99657.98
2019-03-03T02:38:05.866Z,99650.16
2019-03-03T02:40:36.003Z,99640.62
2019-03-03T02:43:06.009Z,99618.45
2019-03-03T02:45:36.251Z,99623.22
2019-03-03T02:48:05.807Z,99623.22
2019-03-03T02:50:35.520Z,99604.09
2019-03-03T02:53:05.392Z,99604.09
2019-03-03T02:55:35.517Z,99598.47
2019-03-03T02:58:05.487Z,99598.47
2019-03-03T03:00:37.435Z,99595.39
2019-03-03T03:03:10.321Z,99595.39
2019-03-03T03:05:57.755Z,99587.58
2019-03-03T03:08:46.334Z,99587.58
2019-03-03T03:11:25.655Z,99575.39
2019-03-03T03:14:04.871Z,99557.14
2019-03-03T03:16:56.675Z,99557.14
2019-03-03T03:19:32.356Z,99551.46
2019-03-03T03:22:17.902Z,99552.34
2019-03-03T03:25:04.356Z,99537.52
2019-03-03T03:28:05.359Z,99530.12
2019-03-03T03:31:03.197Z,99509.72
2019-03-03T03:33:46.313Z,99500.59
2019-03-03T03:36:38.109Z,99500.59
2019-03-03T03:39:38.875Z,99495.38
2019-03-03T03:42:26.311Z,99495.38
2019-03-03T03:45:07.733Z,99481.42
2019-03-03T03:47:48.250Z,99469.69
2019-03-03T03:50:40.836Z,99465.77
2019-03-03T03:53:21.403Z,99455.34
2019-03-03T03:56:16.269Z,99448.83
2019-03-03T03:59:12.431Z,99437.91
2019-03-03T04:02:01.357Z,99426.62
2019-03-03T04:04:40.314Z,99417.05
2019-03-03T04:07:29.256Z,99399.63
2019-03-03T04:10:07.208Z,99390.49
2019-03-03T04:12:43.611Z,99391.77
2019-03-03T04:15:34.294Z,99374.80
2019-03-03T04:18:18.770Z,99374.80
2019-03-03T04:21:19.273Z,99374.34
2019-03-03T04:24:04.682Z,99365.23
2019-03-03T04:27:05.447Z,99346.09
2019-03-03T04:29:57.426Z,99346.09
2019-03-03T04:32:35.723Z,99336.48
2019-03-03T04:35:23.279Z,99335.17
2019-03-03T04:38:20.811Z,99335.17
2019-03-03T04:41:07.950Z,99311.16
2019-03-03T04:43:59.454Z,99311.16
2019-03-03T04:46:36.454Z,99299.36
2019-03-03T04:49:23.548Z,99299.36
2019-03-03T04:52:18.129Z,99285.88
2019-03-03T04:55:06.946Z,99284.55
2019-03-03T04:57:50.729Z,99268.03
2019-03-03T05:00:39.466Z,99267.95
2019-03-03T05:03:34.493Z,99250.98
2019-03-03T05:06:21.555Z,99250.98
2019-03-03T05:08:58.707Z,99233.01
2019-03-03T05:12:21.146Z,99233.01
2019-03-03T05:14:52.475Z,99234.78
2019-03-03T05:17:29.176Z,99219.98
2019-03-03T05:20:00.712Z,99212.95
2019-03-03T05:22:30.516Z,99198.59
2019-03-03T05:25:00.538Z,99202.91
2019-03-03T05:27:30.428Z,99202.91
2019-03-03T05:30:00.341Z,99191.56
2019-03-03T05:32:29.994Z,99197.23
2019-03-03T05:35:00.355Z,99187.62
2019-03-03T05:37:30.281Z,99181.59
2019-03-03T05:40:00.323Z,99181.59
2019-03-03T05:42:30.279Z,99180.66
2019-03-03T05:45:00.235Z,99168.13
2019-03-03T05:47:30.213Z,99149.44
2019-03-03T05:50:00.463Z,99149.44
2019-03-03T05:52:30.463Z,99143.25
2019-03-03T05:55:00.527Z,99143.25
2019-03-03T05:57:30.669Z,99127.65
2019-03-03T06:00:00.513Z,99126.75
2019-03-03T06:02:30.500Z,99116.33
2019-03-03T06:05:00.523Z,99111.98
2019-03-03T06:07:30.574Z,99094.20
2019-03-03T06:10:01.178Z,99094.20
2019-03-03T06:12:31.461Z,99098.95
2019-03-03T06:15:01.507Z,99091.22
2019-03-03T06:17:31.569Z,99095.61
2019-03-03T06:20:01.437Z,99101.30
2019-03-03T06:22:31.315Z,99097.38
2019-03-03T06:25:01.747Z,99093.00
2019-03-03T06:27:31.806Z,99084.33
2019-03-03T06:30:01.605Z,99084.33
2019-03-03T06:32:31.547Z,99074.69
2019-03-03T06:35:01.714Z,99079.84
2019-03-03T06:37:31.546Z,99080.72
2019-03-03T06:40:03.426Z,99070.30
2019-03-03T06:42:33.428Z,99065.05
2019-03-03T06:45:03.547Z,99065.05
2019-03-03T06:47:33.418Z,99061.42
2019-03-03T06:50:03.808Z,99061.42
2019-03-03T06:52:33.571Z,99062.22
2019-03-03T06:55:03.802Z,99063.02
2019-03-03T06:57:33.633Z,99067.30
2019-03-03T07:00:04.226Z,99063.81
2019-03-03T07:02:34.110Z,99054.98
2019-03-03T07:05:03.892Z,99064.49
2019-03-03T07:07:33.778Z,98936.44
2019-03-03T07:10:03.829Z,99076.64
2019-03-03T07:12:33.818Z,99087.13
2019-03-03T07:15:03.701Z,99082.73
2019-03-03T07:17:33.635Z,99082.73
2019-03-03T07:20:03.857Z,99085.31
2019-03-03T07:22:33.726Z,99092.20
2019-03-03T07:25:03.800Z,99088.77
2019-03-03T07:27:33.849Z,99087.77
2019-03-03T07:30:03.567Z,99093.83
2019-03-03T07:32:35.068Z,99103.34
2019-03-03T07:35:05.349Z,99092.45
2019-03-03T07:37:35.260Z,99092.45
2019-03-03T07:40:05.319Z,99100.64
2019-03-03T07:42:34.948Z,99097.47
2019-03-03T07:45:05.352Z,99097.47
2019-03-03T07:47:35.421Z,99100.45
2019-03-03T07:50:05.491Z,99094.34
2019-03-03T07:52:35.203Z,99087.77
2019-03-03T07:55:05.194Z,99083.80
2019-03-03T07:57:34.966Z,99088.11
2019-03-03T08:00:07.260Z,99088.11
2019-03-03T08:02:36.857Z,99082.48
2019-03-03T08:05:07.373Z,99087.19
2019-03-03T08:07:37.404Z,99098.53
2019-03-03T08:10:07.427Z,99109.81
2019-03-03T08:12:37.104Z,99114.12
2019-03-03T08:15:07.487Z,99110.99
2019-03-03T08:17:37.366Z,99117.93
2019-03-03T08:20:07.719Z,99120.07
2019-03-03T08:22:37.941Z,99115.70
2019-03-03T08:25:08.444Z,99121.68
2019-03-03T08:27:39.233Z,99133.94
2019-03-03T08:30:09.568Z,99135.72
2019-03-03T08:32:39.746Z,99134.77
2019-03-03T08:35:11.581Z,99133.88
2019-03-03T08:37:41.560Z,99142.88
2019-03-03T08:40:11.494Z,99142.88
2019-03-03T08:43:00.509Z,99145.83
2019-03-03T08:45:48.972Z,99137.84
2019-03-03T08:48:44.041Z,99149.05
2019-03-03T08:51:31.144Z,99149.05
2019-03-03T08:54:29.032Z,99143.08
2019-03-03T08:57:23.738Z,99144.99
2019-03-03T09:00:03.786Z,99155.02
2019-03-03T09:02:55.679Z,99156.28
2019-03-03T09:05:56.523Z,99166.27
2019-03-03T09:09:00.400Z,99170.97
2019-03-03T09:12:07.302Z,99170.06
2019-03-03T09:14:57.443Z,99159.56
2019-03-03T09:17:37.737Z,99185.56
2019-03-03T09:20:23.860Z,99191.53
2019-03-03T09:23:11.047Z,99191.53
2019-03-03T09:25:56.721Z,99196.77
2019-03-03T09:28:32.159Z,99199.38
2019-03-03T09:31:20.274Z,99195.06
2019-03-03T09:34:12.864Z,99204.62
2019-03-03T09:37:16.744Z,99209.91
2019-03-03T09:40:09.446Z,99216.87
2019-03-03T09:42:55.695Z,99212.52
2019-03-03T09:45:53.615Z,99219.50
2019-03-03T09:48:48.300Z,99219.50
2019-03-03T09:51:35.958Z,99222.59
2019-03-03T09:54:40.006Z,99234.38
2019-03-03T09:57:34.579Z,99236.95
2019-03-03T10:00:22.851Z,99234.33
2019-03-03T10:03:17.677Z,99227.35
2019-03-03T10:06:01.909Z,99229.48
2019-03-03T10:08:37.669Z,99235.94
2019-03-03T10:11:25.094Z,99242.97
2019-03-03T10:13:59.699Z,99242.97
2019-03-03T10:16:42.246Z,99248.07
2019-03-03T10:19:24.842Z,99253.14
2019-03-03T10:22:00.934Z,99251.38
2019-03-03T10:25:07.781Z,99260.64
2019-03-03T10:27:55.555Z,99248.67
2019-03-03T10:30:50.280Z,99255.62
2019-03-03T10:33:42.725Z,99255.62
2019-03-03T10:36:46.615Z,99261.58
2019-03-03T10:39:50.691Z,99258.97
2019-03-03T10:42:35.059Z,99263.92
2019-03-03T10:45:33.014Z,99266.44
2019-03-03T10:48:20.164Z,99272.27
2019-03-03T10:51:07.444Z,99273.53
2019-03-03T10:53:59.923Z,99273.53
2019-03-03T10:56:57.516Z,99272.22
2019-03-03T10:59:43.563Z,99278.38
2019-03-03T11:02:22.436Z,99280.03
2019-03-03T11:05:23.219Z,99280.22
2019-03-03T11:08:14.837Z,99282.11
2019-03-03T11:11:01.366Z,99288.32
2019-03-03T11:13:49.842Z,99281.91
2019-03-03T11:16:30.831Z,99285.12
2019-03-03T11:19:25.824Z,99290.52
2019-03-03T11:22:12.945Z,99284.39
2019-03-03T11:25:14.114Z,99289.59
2019-03-03T11:28:01.139Z,99301.05
2019-03-03T11:30:42.325Z,99294.88
2019-03-03T11:33:36.749Z,99298.48
2019-03-03T11:39:37.396Z,99307.21
2019-03-03T11:42:34.789Z,99307.21
2019-03-03T11:45:21.859Z,99315.75
2019-03-03T11:48:16.266Z,99315.60
2019-03-03T11:51:00.107Z,99317.31
2019-03-03T11:53:44.879Z,99315.13
2019-03-03T11:56:32.122Z,99321.30
2019-03-03T11:59:26.316Z,99325.23
2019-03-03T12:02:33.149Z,99321.72
2019-03-03T12:05:15.245Z,99328.57
2019-03-03T12:08:06.527Z,99326.97
2019-03-03T12:10:57.961Z,99335.02
2019-03-03T12:13:33.533Z,99332.88
2019-03-03T12:16:25.101Z,99324.55
2019-03-03T12:19:09.206Z,99334.24
2019-03-03T12:22:00.846Z,99330.70
2019-03-03T12:24:49.378Z,99326.33
2019-03-03T12:27:33.635Z,99330.95
2019-03-03T12:30:21.517Z,99330.84
2019-03-03T12:33:28.041Z,99344.11
2019-03-03T12:36:21.426Z,99344.97
2019-03-03T12:39:00.144Z,99349.35
2019-03-03T12:41:47.146Z,99345.66
2019-03-03T12:44:40.700Z,99344.72
2019-03-03T12:47:18.736Z,99341.38
2019-03-03T12:50:16.436Z,99342.06
2019-03-03T12:53:07.741Z,99339.53
2019-03-03T12:55:47.609Z,99352.69
2019-03-03T12:58:28.665Z,99355.08
2019-03-03T13:01:23.893Z,99365.56
2019-03-03T13:04:00.607Z,99353.69
2019-03-03T13:06:51.726Z,99344.95
2019-03-03T13:09:40.471Z,99347.34
2019-03-03T13:12:31.900Z,99345.98
2019-03-03T13:15:23.381Z,99347.30
2019-03-03T13:18:03.058Z,99357.05
2019-03-03T13:20:57.755Z,99345.55
2019-03-03T13:24:02.924Z,99352.45
2019-03-03T13:26:42.442Z,99348.82
2019-03-03T13:29:47.584Z,99347.06
2019-03-03T13:32:51.460Z,99342.66
2019-03-03T13:35:48.982Z,99338.04
2019-03-03T13:38:36.233Z,99334.94
2019-03-03T13:41:20.777Z,99326.43
2019-03-03T13:43:50.672Z,99330.70
2019-03-03T13:46:20.292Z,99338.22
2019-03-03T13:48:51.339Z,99341.19
2019-03-03T13:51:21.139Z,99339.63
2019-03-03T13:53:50.849Z,99337.69
2019-03-03T13:56:20.666Z,99327.40
2019-03-03T13:58:50.567Z,99324.82
2019-03-03T14:01:20.196Z,99333.38
2019-03-03T14:03:49.814Z,99315.84
2019-03-03T14:06:19.823Z,99312.36
2019-03-03T14:08:49.679Z,99316.67
2019-03-03T14:11:28.117Z,99309.58
2019-03-03T14:13:58.125Z,99313.97
2019-03-03T14:16:28.226Z,99317.84
2019-03-03T14:18:59.594Z,99318.56
2019-03-03T14:21:29.634Z,99315.46
2019-03-03T14:23:59.425Z,99307.98
2019-03-03T14:26:29.563Z,99304.45
2019-03-03T14:28:59.465Z,99306.66
2019-03-03T14:31:29.253Z,99313.51
2019-03-03T14:33:59.015Z,99315.12
2019-03-03T14:36:28.465Z,99314.63
2019-03-03T14:38:58.337Z,99315.46
2019-03-03T14:41:28.983Z,99308.31
2019-03-03T14:43:58.664Z,99308.31
2019-03-03T14:46:28.505Z,99313.70
2019-03-03T14:48:58.449Z,99303.83
2019-03-03T14:51:28.658Z,99306.85
2019-03-03T14:53:58.658Z,99303.95
2019-03-03T14:56:31.855Z,99303.95
2019-03-03T14:59:01.815Z,99307.45
2019-03-03T15:01:31.383Z,99307.45
2019-03-03T15:04:01.221Z,99296.05
2019-03-03T15:06:31.320Z,99302.11
2019-03-03T15:09:01.047Z,99295.08
2019-03-03T15:11:30.713Z,99301.09
2019-03-03T15:14:00.374Z,99301.09
2019-03-03T15:16:30.298Z,99299.34
2019-03-03T15:19:00.033Z,99286.52
2019-03-03T15:21:29.980Z,99299.98
2019-03-03T15:23:59.779Z,99294.24
2019-03-03T15:26:29.754Z,99294.24
2019-03-03T15:28:59.510Z,99303.48
2019-03-03T15:31:37.473Z,99303.48
2019-03-03T15:34:01.170Z,99299.20
2019-03-03T15:36:31.536Z,99297.55
2019-03-03T15:39:01.470Z,99299.40
2019-03-03T15:41:31.414Z,99290.98
2019-03-03T15:44:01.034Z,99290.98
2019-03-03T15:46:30.799Z,99300.50
2019-03-03T15:49:00.608Z,99300.50
2019-03-03T15:51:30.430Z,99298.77
2019-03-03T15:54:00.341Z,99303.08
2019-03-03T15:56:30.151Z,99303.08
2019-03-03T15:58:59.995Z,99304.78
2019-03-03T16:01:30.221Z,99292.30
2019-03-03T16:04:00.274Z,99304.97
2019-03-03T16:06:30.166Z,99304.97
2019-03-03T16:09:00.072Z,99305.05
2019-03-03T16:11:30.805Z,99300.69
2019-03-03T16:14:00.402Z,99299.56
2019-03-03T16:16:30.071Z,99300.83
2019-03-03T16:19:00.064Z,99299.52
2019-03-03T16:21:29.664Z,99293.11
2019-03-03T16:23:59.487Z,99295.38
2019-03-03T16:26:29.973Z,99294.08
2019-03-03T16:28:59.504Z,99289.49
2019-03-03T16:31:29.164Z,99289.14
2019-03-03T16:33:59.006Z,99289.14
2019-03-03T16:36:29.720Z,99287.08
2019-03-03T16:38:59.412Z,99281.06
2019-03-03T16:41:29.327Z,99287.24
2019-03-03T16:43:59.265Z,99286.34
2019-03-03T16:46:29.221Z,99292.48
2019-03-03T16:48:59.040Z,99294.66
2019-03-03T16:51:30.019Z,99287.60
2019-03-03T16:54:01.603Z,99288.34
2019-03-03T16:56:31.630Z,99283.95
2019-03-03T16:59:01.175Z,99279.53
2019-03-03T17:01:30.837Z,99281.33
2019-03-03T17:04:01.405Z,99283.08
2019-03-03T17:06:32.178Z,99282.33
2019-03-03T17:09:01.773Z,99278.08
2019-03-03T17:11:31.503Z,99278.08
2019-03-03T17:14:04.607Z,99280.62
2019-03-03T17:16:35.514Z,99277.92
2019-03-03T17:19:05.420Z,99277.92
2019-03-03T17:21:37.324Z,99281.72
2019-03-03T17:24:06.862Z,99267.32
2019-03-03T17:26:42.361Z,99273.38
2019-03-03T17:29:11.898Z,99276.92
2019-03-03T17:31:41.555Z,99267.89
2019-03-03T17:34:14.570Z,99271.77
2019-03-03T17:36:45.491Z,99277.84
2019-03-03T17:39:15.203Z,99277.84
2019-03-03T17:41:45.212Z,99260.42
2019-03-03T17:44:15.236Z,99260.42
2019-03-03T17:46:47.158Z,99257.81
2019-03-03T17:49:20.679Z,99251.43
2019-03-03T17:51:50.304Z,99245.72
2019-03-03T17:54:21.131Z,99247.81
2019-03-03T17:56:53.833Z,99246.07
2019-03-03T17:59:23.619Z,99242.18
2019-03-03T18:01:55.804Z,99239.74
2019-03-03T18:04:25.773Z,99239.74
2019-03-03T18:06:55.356Z,99232.37
2019-03-03T18:09:27.536Z,99233.59
2019-03-03T18:11:57.419Z,99237.08
2019-03-03T18:14:34.756Z,99229.23
2019-03-03T18:17:04.394Z,99233.94
2019-03-03T18:19:42.018Z,99229.49
2019-03-03T18:22:11.946Z,99234.63
2019-03-03T18:24:41.629Z,99233.28
2019-03-03T18:27:15.925Z,99231.70
2019-03-03T18:29:46.137Z,99221.28
2019-03-03T18:32:19.586Z,99222.99
2019-03-03T18:34:49.206Z,99221.24
2019-03-03T18:37:18.924Z,99211.69
2019-03-03T18:39:49.359Z,99217.84
2019-03-03T18:42:20.431Z,99207.81
2019-03-03T18:44:50.499Z,99207.81
2019-03-03T18:47:20.451Z,99196.11
2019-03-03T18:49:55.834Z,99196.11
2019-03-03T18:52:24.898Z,99199.56
2019-03-03T18:55:02.394Z,99201.34
2019-03-03T18:57:36.554Z,99197.82
2019-03-03T19:00:11.771Z,99200.44
2019-03-03T19:02:41.472Z,99189.62
2019-03-03T19:05:11.376Z,99189.62
2019-03-03T19:07:41.627Z,99197.03
2019-03-03T19:10:13.393Z,99190.92
2019-03-03T19:12:43.271Z,99195.64
2019-03-03T19:15:15.061Z,99197.47
2019-03-03T19:17:44.837Z,99202.13
2019-03-03T19:20:15.297Z,99198.59
2019-03-03T19:22:45.012Z,99198.59
2019-03-03T19:25:15.438Z,99200.83
2019-03-03T19:27:48.554Z,99200.83
2019-03-03T19:30:25.077Z,99196.77
2019-03-03T19:33:09.279Z,99197.73
2019-03-03T19:35:38.927Z,99190.88
2019-03-03T19:38:11.426Z,99193.59
2019-03-03T19:40:50.730Z,99192.41
2019-03-03T19:43:22.487Z,99188.40
2019-03-03T19:45:59.689Z,99179.20
2019-03-03T19:48:49.164Z,99182.38
2019-03-03T19:51:21.101Z,99182.38
2019-03-03T19:53:50.867Z,99191.97
2019-03-03T19:56:21.535Z,99187.52
2019-03-03T19:58:51.318Z,99187.78
2019-03-03T20:01:21.115Z,99187.83
2019-03-03T20:03:50.852Z,99190.25
2019-03-03T20:06:21.702Z,99189.53
2019-03-03T20:08:51.377Z,99185.77
2019-03-03T20:11:22.096Z,99191.11
2019-03-03T20:13:51.869Z,99199.94
2019-03-03T20:16:21.565Z,99189.12
2019-03-03T20:18:51.227Z,99184.80
2019-03-03T20:21:20.910Z,99171.33
2019-03-03T20:23:51.081Z,99168.61
2019-03-03T20:26:22.535Z,99161.71
2019-03-03T20:28:53.764Z,99164.40
2019-03-03T20:31:23.491Z,99166.17
2019-03-03T20:33:53.254Z,99161.38
2019-03-03T20:36:22.783Z,99171.52
2019-03-03T20:38:53.774Z,99149.73
2019-03-03T20:41:23.450Z,99149.73
2019-03-03T20:43:55.802Z,99145.85
2019-03-03T20:46:25.721Z,99144.44
2019-03-03T20:48:58.767Z,99132.20
2019-03-03T20:51:30.970Z,99132.95
2019-03-03T20:54:00.845Z,99128.56
2019-03-03T20:56:35.253Z,99116.59
2019-03-03T20:59:05.576Z,99116.59
2019-03-03T21:01:35.272Z,99131.41
2019-03-03T21:04:05.257Z,99117.83
2019-03-03T21:06:35.398Z,99113.83
2019-03-03T21:09:06.798Z,99117.31
2019-03-03T21:11:36.793Z,99114.73
2019-03-03T21:14:06.986Z,99104.36
2019-03-03T21:16:37.814Z,99105.98
2019-03-03T21:19:08.779Z,99100.80
2019-03-03T21:21:38.746Z,99106.86
2019-03-03T21:24:08.510Z,99104.52
2019-03-03T21:26:38.288Z,99115.73
2019-03-03T21:29:08.870Z,99097.20
2019-03-03T21:31:38.743Z,99097.20
2019-03-03T21:34:10.197Z,99116.33
2019-03-03T21:36:40.977Z,99116.33
2019-03-03T21:39:10.939Z,99113.79
2019-03-03T21:41:40.958Z,99118.27
2019-03-03T21:44:11.595Z,99110.94
2019-03-03T21:46:42.600Z,99110.94
2019-03-03T21:49:14.606Z,99111.48
2019-03-03T21:51:44.448Z,99105.23
2019-03-03T21:54:14.577Z,99105.16
2019-03-03T21:56:44.770Z,99102.15
2019-03-03T21:59:14.783Z,99089.47
2019-03-03T22:01:44.677Z,99090.78
2019-03-03T22:04:14.722Z,99086.86
2019-03-03T22:06:45.216Z,99078.95
2019-03-03T22:09:14.996Z,99078.95
2019-03-03T22:11:46.484Z,99080.13
2019-03-03T22:14:15.967Z,99079.17
2019-03-03T22:16:47.722Z,99084.83
2019-03-03T22:19:17.189Z,99082.47
2019-03-03T22:21:47.290Z,99075.61
2019-03-03T22:24:16.972Z,99075.54
2019-03-03T22:26:46.661Z,99075.09
2019-03-03T22:29:16.376Z,99067.77
2019-03-03T22:31:46.240Z,99064.21
2019-03-03T22:34:15.974Z,99059.81
2019-03-03T22:36:45.583Z,99052.88
2019-03-03T22:39:16.312Z,99039.94
2019-03-03T22:41:45.877Z,99053.80
2019-03-03T22:44:15.491Z,99040.78
2019-03-03T22:46:45.314Z,99040.78
2019-03-03T22:49:14.879Z,99049.52
2019-03-03T22:51:44.484Z,99032.11
2019-03-03T22:54:14.247Z,99027.71
2019-03-03T22:56:43.862Z,99022.25
2019-03-03T22:59:13.510Z,99021.77
2019-03-03T23:01:45.469Z,99025.66
2019-03-03T23:04:33.423Z,99020.03
2019-03-03T23:07:19.705Z,99020.03
2019-03-03T23:10:37.790Z,99018.37
2019-03-03T23:13:43.926Z,99021.50
2019-03-03T23:16:49.043Z,99011.56
2019-03-03T23:20:08.824Z,99010.66
2019-03-03T23:23:40.376Z,99005.31
2019-03-03T23:26:16.596Z,99001.91
2019-03-03T23:28:41.517Z,98996.25
2019-03-03T23:31:11.300Z,98995.64
2019-03-03T23:33:41.283Z,98992.86
2019-03-03T23:36:10.828Z,98982.89
2019-03-03T23:38:40.477Z,98980.48
2019-03-03T23:41:10.073Z,98980.48
2019-03-03T23:43:39.684Z,98975.62
2019-03-03T23:46:09.372Z,98969.91
2019-03-03T23:48:39.242Z,98972.53
2019-03-03T23:51:08.863Z,98969.52
2019-03-03T23:53:38.572Z,98963.77
2019-03-03T23:56:08.087Z,98967.56
2019-03-03T23:58:37.620Z,98956.28
